sensor_id;sensor_type;location;lat;lon;timestamp;temperature;humidity
7030;DHT22;3556;53.500;10.176;2023-05-07T00:01:07;8.90;99.90
7030;DHT22;3556;53.500;10.176;2023-05-07T00:03:33;8.80;99.90
7030;DHT22;3556;53.500;10.176;2023-05-07T00:05:58;8.80;99.90
7030;DHT22;3556;53.500;10.176;2023-05-07T00:08:24;8.80;99.90
7030;DHT22;3556;53.500;10.176;2023-05-07T00:10:50;8.80;99.90
7030;DHT22;3556;53.500;10.176;2023-05-07T00:13:15;8.90;99.90
7030;DHT22;3556;53.500;10.176;2023-05-07T00:15:41;8.90;99.90
7030;DHT22;3556;53.500;10.176;2023-05-07T00:18:06;8.90;99.90
7030;DHT22;3556;53.500;10.176;2023-05-07T00:20:32;8.90;99.90
7030;DHT22;3556;53.500;10.176;2023-05-07T00:22:58;8.90;99.90
7030;DHT22;3556;53.500;10.176;2023-05-07T00:25:23;8.90;99.90
7030;DHT22;3556;53.500;10.176;2023-05-07T00:27:49;8.90;99.90
7030;DHT22;3556;53.500;10.176;2023-05-07T00:30:15;8.90;99.90
7030;DHT22;3556;53.500;10.176;2023-05-07T00:32:40;8.90;99.90
7030;DHT22;3556;53.500;10.176;2023-05-07T00:35:06;8.90;99.90
7030;DHT22;3556;53.500;10.176;2023-05-07T00:37:32;8.90;99.90
7030;DHT22;3556;53.500;10.176;2023-05-07T00:39:58;8.90;99.90
7030;DHT22;3556;53.500;10.176;2023-05-07T00:42:23;8.90;99.90
7030;DHT22;3556;53.500;10.176;2023-05-07T00:44:49;9.00;99.90
7030;DHT22;3556;53.500;10.176;2023-05-07T00:47:15;8.90;99.90
7030;DHT22;3556;53.500;10.176;2023-05-07T00:49:43;9.00;99.90
7030;DHT22;3556;53.500;10.176;2023-05-07T00:52:14;9.00;99.90
7030;DHT22;3556;53.500;10.176;2023-05-07T00:54:41;8.90;99.90
7030;DHT22;3556;53.500;10.176;2023-05-07T00:57:09;8.90;99.90
7030;DHT22;3556;53.500;10.176;2023-05-07T00:59:35;8.90;99.90
7030;DHT22;3556;53.500;10.176;2023-05-07T01:02:01;8.90;99.90
7030;DHT22;3556;53.500;10.176;2023-05-07T01:04:27;8.90;99.90
7030;DHT22;3556;53.500;10.176;2023-05-07T01:06:56;8.90;99.90
7030;DHT22;3556;53.500;10.176;2023-05-07T01:09:25;8.90;99.90
7030;DHT22;3556;53.500;10.176;2023-05-07T01:11:52;8.90;99.90
7030;DHT22;3556;53.500;10.176;2023-05-07T01:14:18;8.90;99.90
7030;DHT22;3556;53.500;10.176;2023-05-07T01:16:44;8.90;99.90
7030;DHT22;3556;53.500;10.176;2023-05-07T01:19:11;8.90;99.90
7030;DHT22;3556;53.500;10.176;2023-05-07T01:21:43;8.90;99.90
7030;DHT22;3556;53.500;10.176;2023-05-07T01:24:10;8.90;99.90
7030;DHT22;3556;53.500;10.176;2023-05-07T01:26:37;8.90;99.90
7030;DHT22;3556;53.500;10.176;2023-05-07T01:29:03;8.90;99.90
7030;DHT22;3556;53.500;10.176;2023-05-07T01:31:29;9.00;99.90
7030;DHT22;3556;53.500;10.176;2023-05-07T01:33:55;8.90;99.90
7030;DHT22;3556;53.500;10.176;2023-05-07T01:36:22;8.90;99.90
7030;DHT22;3556;53.500;10.176;2023-05-07T01:38:51;9.00;99.90
7030;DHT22;3556;53.500;10.176;2023-05-07T01:41:19;9.00;99.90
7030;DHT22;3556;53.500;10.176;2023-05-07T01:43:46;9.00;99.90
7030;DHT22;3556;53.500;10.176;2023-05-07T01:46:12;8.90;99.90
7030;DHT22;3556;53.500;10.176;2023-05-07T01:48:38;9.00;99.90
7030;DHT22;3556;53.500;10.176;2023-05-07T01:51:05;9.00;99.90
7030;DHT22;3556;53.500;10.176;2023-05-07T01:53:40;9.00;99.90
7030;DHT22;3556;53.500;10.176;2023-05-07T01:56:06;9.00;99.90
7030;DHT22;3556;53.500;10.176;2023-05-07T01:58:32;9.00;99.90
7030;DHT22;3556;53.500;10.176;2023-05-07T02:00:58;9.00;99.90
7030;DHT22;3556;53.500;10.176;2023-05-07T02:03:24;9.00;99.90
7030;DHT22;3556;53.500;10.176;2023-05-07T02:05:50;9.00;99.90
7030;DHT22;3556;53.500;10.176;2023-05-07T02:08:15;8.90;99.90
7030;DHT22;3556;53.500;10.176;2023-05-07T02:10:41;8.90;99.90
7030;DHT22;3556;53.500;10.176;2023-05-07T02:13:06;8.90;99.90
7030;DHT22;3556;53.500;10.176;2023-05-07T02:15:32;8.90;99.90
7030;DHT22;3556;53.500;10.176;2023-05-07T02:17:59;8.90;99.90
7030;DHT22;3556;53.500;10.176;2023-05-07T02:20:25;8.90;99.90
7030;DHT22;3556;53.500;10.176;2023-05-07T02:22:51;8.90;99.90
7030;DHT22;3556;53.500;10.176;2023-05-07T02:25:16;8.90;99.90
7030;DHT22;3556;53.500;10.176;2023-05-07T02:27:42;8.80;99.90
7030;DHT22;3556;53.500;10.176;2023-05-07T02:30:08;8.80;99.90
7030;DHT22;3556;53.500;10.176;2023-05-07T02:32:33;8.80;99.90
7030;DHT22;3556;53.500;10.176;2023-05-07T02:34:59;8.80;99.90
7030;DHT22;3556;53.500;10.176;2023-05-07T02:37:25;8.80;99.90
7030;DHT22;3556;53.500;10.176;2023-05-07T02:39:50;8.90;99.90
7030;DHT22;3556;53.500;10.176;2023-05-07T02:42:16;8.80;99.90
7030;DHT22;3556;53.500;10.176;2023-05-07T02:44:41;8.80;99.90
7030;DHT22;3556;53.500;10.176;2023-05-07T02:47:07;8.80;99.90
7030;DHT22;3556;53.500;10.176;2023-05-07T02:49:34;8.80;99.90
7030;DHT22;3556;53.500;10.176;2023-05-07T02:51:59;8.80;99.90
7030;DHT22;3556;53.500;10.176;2023-05-07T02:54:25;8.80;99.90
7030;DHT22;3556;53.500;10.176;2023-05-07T02:56:50;8.80;99.90
7030;DHT22;3556;53.500;10.176;2023-05-07T02:59:16;8.80;99.90
7030;DHT22;3556;53.500;10.176;2023-05-07T03:01:42;8.80;99.90
7030;DHT22;3556;53.500;10.176;2023-05-07T03:04:09;8.70;99.90
7030;DHT22;3556;53.500;10.176;2023-05-07T03:06:36;8.70;99.90
7030;DHT22;3556;53.500;10.176;2023-05-07T03:09:02;8.70;99.90
7030;DHT22;3556;53.500;10.176;2023-05-07T03:11:28;8.70;99.90
7030;DHT22;3556;53.500;10.176;2023-05-07T03:13:54;8.70;99.90
7030;DHT22;3556;53.500;10.176;2023-05-07T03:16:19;8.70;99.90
7030;DHT22;3556;53.500;10.176;2023-05-07T03:18:45;8.70;99.90
7030;DHT22;3556;53.500;10.176;2023-05-07T03:21:11;8.80;99.90
7030;DHT22;3556;53.500;10.176;2023-05-07T03:23:36;8.80;99.90
7030;DHT22;3556;53.500;10.176;2023-05-07T03:26:02;8.80;99.90
7030;DHT22;3556;53.500;10.176;2023-05-07T03:28:28;8.80;99.90
7030;DHT22;3556;53.500;10.176;2023-05-07T03:30:53;8.80;99.90
7030;DHT22;3556;53.500;10.176;2023-05-07T03:33:19;8.80;99.90
7030;DHT22;3556;53.500;10.176;2023-05-07T03:35:44;8.80;99.90
7030;DHT22;3556;53.500;10.176;2023-05-07T03:38:10;8.80;99.90
7030;DHT22;3556;53.500;10.176;2023-05-07T03:40:36;8.80;99.90
7030;DHT22;3556;53.500;10.176;2023-05-07T03:43:01;8.80;99.90
7030;DHT22;3556;53.500;10.176;2023-05-07T03:45:27;8.80;99.90
7030;DHT22;3556;53.500;10.176;2023-05-07T03:47:53;8.80;99.90
7030;DHT22;3556;53.500;10.176;2023-05-07T03:50:19;8.80;99.90
7030;DHT22;3556;53.500;10.176;2023-05-07T03:52:44;8.80;99.90
7030;DHT22;3556;53.500;10.176;2023-05-07T03:55:10;8.80;99.90
7030;DHT22;3556;53.500;10.176;2023-05-07T03:57:36;8.90;99.90
7030;DHT22;3556;53.500;10.176;2023-05-07T04:00:02;8.90;99.90
7030;DHT22;3556;53.500;10.176;2023-05-07T04:02:29;8.90;99.90
7030;DHT22;3556;53.500;10.176;2023-05-07T04:04:54;8.90;99.90
7030;DHT22;3556;53.500;10.176;2023-05-07T04:07:20;8.90;99.90
7030;DHT22;3556;53.500;10.176;2023-05-07T04:09:46;8.90;99.90
7030;DHT22;3556;53.500;10.176;2023-05-07T04:12:11;8.90;99.90
7030;DHT22;3556;53.500;10.176;2023-05-07T04:14:37;8.90;99.90
7030;DHT22;3556;53.500;10.176;2023-05-07T04:17:02;8.90;99.90
7030;DHT22;3556;53.500;10.176;2023-05-07T04:19:28;8.90;99.90
7030;DHT22;3556;53.500;10.176;2023-05-07T04:21:53;8.90;99.90
7030;DHT22;3556;53.500;10.176;2023-05-07T04:24:19;8.90;99.90
7030;DHT22;3556;53.500;10.176;2023-05-07T04:26:45;8.90;99.90
7030;DHT22;3556;53.500;10.176;2023-05-07T04:29:11;8.90;99.90
7030;DHT22;3556;53.500;10.176;2023-05-07T04:31:36;8.90;99.90
7030;DHT22;3556;53.500;10.176;2023-05-07T04:34:02;8.90;99.90
7030;DHT22;3556;53.500;10.176;2023-05-07T04:36:28;8.90;99.90
7030;DHT22;3556;53.500;10.176;2023-05-07T04:38:54;8.90;99.90
7030;DHT22;3556;53.500;10.176;2023-05-07T04:41:20;8.90;99.90
7030;DHT22;3556;53.500;10.176;2023-05-07T04:43:46;8.90;99.90
7030;DHT22;3556;53.500;10.176;2023-05-07T04:46:11;8.90;99.90
7030;DHT22;3556;53.500;10.176;2023-05-07T04:48:37;9.00;99.90
7030;DHT22;3556;53.500;10.176;2023-05-07T04:51:03;9.00;99.90
7030;DHT22;3556;53.500;10.176;2023-05-07T04:53:28;9.00;99.90
7030;DHT22;3556;53.500;10.176;2023-05-07T04:55:57;9.00;99.90
7030;DHT22;3556;53.500;10.176;2023-05-07T04:58:23;9.00;99.90
7030;DHT22;3556;53.500;10.176;2023-05-07T05:00:49;9.00;99.90
7030;DHT22;3556;53.500;10.176;2023-05-07T05:03:15;9.10;99.90
7030;DHT22;3556;53.500;10.176;2023-05-07T05:05:40;9.10;99.90
7030;DHT22;3556;53.500;10.176;2023-05-07T05:08:06;9.10;99.90
7030;DHT22;3556;53.500;10.176;2023-05-07T05:10:32;9.10;99.90
7030;DHT22;3556;53.500;10.176;2023-05-07T05:12:58;9.10;99.90
7030;DHT22;3556;53.500;10.176;2023-05-07T05:15:23;9.10;99.90
7030;DHT22;3556;53.500;10.176;2023-05-07T05:17:49;9.10;99.90
7030;DHT22;3556;53.500;10.176;2023-05-07T05:20:14;9.20;99.90
7030;DHT22;3556;53.500;10.176;2023-05-07T05:22:41;9.20;99.90
7030;DHT22;3556;53.500;10.176;2023-05-07T05:25:07;9.20;99.90
7030;DHT22;3556;53.500;10.176;2023-05-07T05:27:34;9.20;99.90
7030;DHT22;3556;53.500;10.176;2023-05-07T05:30:00;9.20;99.90
7030;DHT22;3556;53.500;10.176;2023-05-07T05:32:25;9.20;99.90
7030;DHT22;3556;53.500;10.176;2023-05-07T05:34:51;9.20;99.90
7030;DHT22;3556;53.500;10.176;2023-05-07T05:37:17;9.30;99.90
7030;DHT22;3556;53.500;10.176;2023-05-07T05:39:42;9.20;99.90
7030;DHT22;3556;53.500;10.176;2023-05-07T05:42:08;9.30;99.90
7030;DHT22;3556;53.500;10.176;2023-05-07T05:44:33;9.30;99.90
7030;DHT22;3556;53.500;10.176;2023-05-07T05:46:59;9.30;99.90
7030;DHT22;3556;53.500;10.176;2023-05-07T05:49:25;9.30;99.90
7030;DHT22;3556;53.500;10.176;2023-05-07T05:51:51;9.40;99.90
7030;DHT22;3556;53.500;10.176;2023-05-07T05:54:16;9.30;99.90
7030;DHT22;3556;53.500;10.176;2023-05-07T05:56:42;9.30;99.90
7030;DHT22;3556;53.500;10.176;2023-05-07T05:59:08;9.40;99.90
7030;DHT22;3556;53.500;10.176;2023-05-07T06:01:33;9.40;99.90
7030;DHT22;3556;53.500;10.176;2023-05-07T06:03:59;9.40;99.90
7030;DHT22;3556;53.500;10.176;2023-05-07T06:06:24;9.40;99.90
7030;DHT22;3556;53.500;10.176;2023-05-07T06:08:51;9.50;99.90
7030;DHT22;3556;53.500;10.176;2023-05-07T06:11:16;9.50;99.90
7030;DHT22;3556;53.500;10.176;2023-05-07T06:13:42;9.50;99.90
7030;DHT22;3556;53.500;10.176;2023-05-07T06:16:07;9.50;99.90
7030;DHT22;3556;53.500;10.176;2023-05-07T06:18:33;9.50;99.90
7030;DHT22;3556;53.500;10.176;2023-05-07T06:21:01;9.50;99.90
7030;DHT22;3556;53.500;10.176;2023-05-07T06:23:27;9.60;99.90
7030;DHT22;3556;53.500;10.176;2023-05-07T06:25:52;9.60;99.90
7030;DHT22;3556;53.500;10.176;2023-05-07T06:28:18;9.60;99.90
7030;DHT22;3556;53.500;10.176;2023-05-07T06:30:44;9.60;99.90
7030;DHT22;3556;53.500;10.176;2023-05-07T06:33:10;9.60;99.90
7030;DHT22;3556;53.500;10.176;2023-05-07T06:35:36;9.60;99.90
7030;DHT22;3556;53.500;10.176;2023-05-07T06:38:01;9.60;99.90
7030;DHT22;3556;53.500;10.176;2023-05-07T06:40:27;9.70;99.90
7030;DHT22;3556;53.500;10.176;2023-05-07T06:42:53;9.70;99.90
7030;DHT22;3556;53.500;10.176;2023-05-07T06:45:19;9.70;99.90
7030;DHT22;3556;53.500;10.176;2023-05-07T06:47:45;9.70;99.90
7030;DHT22;3556;53.500;10.176;2023-05-07T06:50:11;9.80;99.90
7030;DHT22;3556;53.500;10.176;2023-05-07T06:52:37;9.80;99.90
7030;DHT22;3556;53.500;10.176;2023-05-07T06:55:02;9.80;99.90
7030;DHT22;3556;53.500;10.176;2023-05-07T06:57:28;9.90;99.90
7030;DHT22;3556;53.500;10.176;2023-05-07T06:59:54;9.90;99.90
7030;DHT22;3556;53.500;10.176;2023-05-07T07:02:19;9.90;99.90
7030;DHT22;3556;53.500;10.176;2023-05-07T07:04:45;10.00;99.90
7030;DHT22;3556;53.500;10.176;2023-05-07T07:07:11;10.00;99.90
7030;DHT22;3556;53.500;10.176;2023-05-07T07:09:36;10.00;99.90
7030;DHT22;3556;53.500;10.176;2023-05-07T07:12:02;10.00;99.90
7030;DHT22;3556;53.500;10.176;2023-05-07T07:14:28;10.00;99.90
7030;DHT22;3556;53.500;10.176;2023-05-07T07:16:53;10.00;99.90
7030;DHT22;3556;53.500;10.176;2023-05-07T07:19:19;10.10;99.90
7030;DHT22;3556;53.500;10.176;2023-05-07T07:21:45;10.10;99.90
7030;DHT22;3556;53.500;10.176;2023-05-07T07:24:11;10.10;99.90
7030;DHT22;3556;53.500;10.176;2023-05-07T07:26:37;10.10;99.90
7030;DHT22;3556;53.500;10.176;2023-05-07T07:29:03;10.20;99.90
7030;DHT22;3556;53.500;10.176;2023-05-07T07:31:28;10.20;99.90
7030;DHT22;3556;53.500;10.176;2023-05-07T07:33:54;10.20;99.90
7030;DHT22;3556;53.500;10.176;2023-05-07T07:36:19;10.30;99.90
7030;DHT22;3556;53.500;10.176;2023-05-07T07:38:45;10.30;99.90
7030;DHT22;3556;53.500;10.176;2023-05-07T07:41:11;10.30;99.90
7030;DHT22;3556;53.500;10.176;2023-05-07T07:43:36;10.30;99.90
7030;DHT22;3556;53.500;10.176;2023-05-07T07:46:02;10.30;99.90
7030;DHT22;3556;53.500;10.176;2023-05-07T07:48:28;10.40;99.90
7030;DHT22;3556;53.500;10.176;2023-05-07T07:50:53;10.40;99.90
7030;DHT22;3556;53.500;10.176;2023-05-07T07:53:19;10.50;99.90
7030;DHT22;3556;53.500;10.176;2023-05-07T07:55:45;10.50;99.90
7030;DHT22;3556;53.500;10.176;2023-05-07T07:58:11;10.50;99.90
7030;DHT22;3556;53.500;10.176;2023-05-07T08:00:36;10.60;99.90
7030;DHT22;3556;53.500;10.176;2023-05-07T08:03:02;10.60;99.90
7030;DHT22;3556;53.500;10.176;2023-05-07T08:05:28;10.50;99.90
7030;DHT22;3556;53.500;10.176;2023-05-07T08:07:54;10.60;99.90
7030;DHT22;3556;53.500;10.176;2023-05-07T08:10:21;10.60;99.90
7030;DHT22;3556;53.500;10.176;2023-05-07T08:12:48;10.60;99.90
7030;DHT22;3556;53.500;10.176;2023-05-07T08:15:14;10.60;99.90
7030;DHT22;3556;53.500;10.176;2023-05-07T08:17:40;10.70;99.90
7030;DHT22;3556;53.500;10.176;2023-05-07T08:20:06;10.70;99.90
7030;DHT22;3556;53.500;10.176;2023-05-07T08:22:34;10.70;99.90
7030;DHT22;3556;53.500;10.176;2023-05-07T08:24:59;10.70;99.90
7030;DHT22;3556;53.500;10.176;2023-05-07T08:27:25;10.70;99.90
7030;DHT22;3556;53.500;10.176;2023-05-07T08:29:51;10.70;99.90
7030;DHT22;3556;53.500;10.176;2023-05-07T08:32:17;10.80;99.90
7030;DHT22;3556;53.500;10.176;2023-05-07T08:34:42;10.80;99.90
7030;DHT22;3556;53.500;10.176;2023-05-07T08:37:08;10.80;99.90
7030;DHT22;3556;53.500;10.176;2023-05-07T08:39:33;10.80;99.90
7030;DHT22;3556;53.500;10.176;2023-05-07T08:42:00;10.90;99.90
7030;DHT22;3556;53.500;10.176;2023-05-07T08:44:33;10.90;99.90
7030;DHT22;3556;53.500;10.176;2023-05-07T08:47:01;11.00;99.90
7030;DHT22;3556;53.500;10.176;2023-05-07T08:49:27;11.00;99.90
7030;DHT22;3556;53.500;10.176;2023-05-07T08:51:53;11.10;99.90
7030;DHT22;3556;53.500;10.176;2023-05-07T08:54:20;11.10;99.90
7030;DHT22;3556;53.500;10.176;2023-05-07T08:56:46;11.10;99.90
7030;DHT22;3556;53.500;10.176;2023-05-07T08:59:12;11.10;99.90
7030;DHT22;3556;53.500;10.176;2023-05-07T09:01:37;11.20;99.90
7030;DHT22;3556;53.500;10.176;2023-05-07T09:04:04;11.20;99.90
7030;DHT22;3556;53.500;10.176;2023-05-07T09:06:31;11.20;99.90
7030;DHT22;3556;53.500;10.176;2023-05-07T09:08:56;11.30;99.90
7030;DHT22;3556;53.500;10.176;2023-05-07T09:11:24;11.40;99.90
7030;DHT22;3556;53.500;10.176;2023-05-07T09:13:56;11.40;99.90
7030;DHT22;3556;53.500;10.176;2023-05-07T09:16:24;11.50;99.90
7030;DHT22;3556;53.500;10.176;2023-05-07T09:18:54;11.50;99.90
7030;DHT22;3556;53.500;10.176;2023-05-07T09:21:20;11.60;99.90
7030;DHT22;3556;53.500;10.176;2023-05-07T09:23:51;11.60;99.90
7030;DHT22;3556;53.500;10.176;2023-05-07T09:26:18;11.70;99.90
7030;DHT22;3556;53.500;10.176;2023-05-07T09:28:43;11.60;99.90
7030;DHT22;3556;53.500;10.176;2023-05-07T09:31:10;11.50;99.90
7030;DHT22;3556;53.500;10.176;2023-05-07T09:33:37;11.50;99.90
7030;DHT22;3556;53.500;10.176;2023-05-07T09:36:04;11.40;99.90
7030;DHT22;3556;53.500;10.176;2023-05-07T09:38:31;11.50;99.90
7030;DHT22;3556;53.500;10.176;2023-05-07T09:41:08;11.50;99.90
7030;DHT22;3556;53.500;10.176;2023-05-07T09:43:35;11.60;99.90
7030;DHT22;3556;53.500;10.176;2023-05-07T09:46:06;11.60;99.90
7030;DHT22;3556;53.500;10.176;2023-05-07T09:48:34;11.70;99.90
7030;DHT22;3556;53.500;10.176;2023-05-07T09:51:02;11.80;99.90
7030;DHT22;3556;53.500;10.176;2023-05-07T09:53:30;11.90;99.90
7030;DHT22;3556;53.500;10.176;2023-05-07T09:55:57;12.00;99.90
7030;DHT22;3556;53.500;10.176;2023-05-07T09:58:23;12.10;99.90
7030;DHT22;3556;53.500;10.176;2023-05-07T10:00:51;12.20;99.90
7030;DHT22;3556;53.500;10.176;2023-05-07T10:03:19;12.40;99.90
7030;DHT22;3556;53.500;10.176;2023-05-07T10:05:45;12.40;99.90
7030;DHT22;3556;53.500;10.176;2023-05-07T10:08:13;12.50;99.90
7030;DHT22;3556;53.500;10.176;2023-05-07T10:10:39;12.50;99.90
7030;DHT22;3556;53.500;10.176;2023-05-07T10:13:05;12.50;99.90
7030;DHT22;3556;53.500;10.176;2023-05-07T10:15:36;12.60;99.90
7030;DHT22;3556;53.500;10.176;2023-05-07T10:18:03;12.70;99.90
7030;DHT22;3556;53.500;10.176;2023-05-07T10:20:29;12.70;99.90
7030;DHT22;3556;53.500;10.176;2023-05-07T10:22:56;12.70;99.90
7030;DHT22;3556;53.500;10.176;2023-05-07T10:25:29;12.80;99.90
7030;DHT22;3556;53.500;10.176;2023-05-07T10:27:58;12.80;99.90
7030;DHT22;3556;53.500;10.176;2023-05-07T10:33:27;12.90;99.90
7030;DHT22;3556;53.500;10.176;2023-05-07T10:35:57;12.90;99.90
7030;DHT22;3556;53.500;10.176;2023-05-07T10:38:24;12.90;99.90
7030;DHT22;3556;53.500;10.176;2023-05-07T10:40:51;12.90;99.90
7030;DHT22;3556;53.500;10.176;2023-05-07T10:43:16;13.00;99.90
7030;DHT22;3556;53.500;10.176;2023-05-07T10:45:42;13.10;99.90
7030;DHT22;3556;53.500;10.176;2023-05-07T10:50:36;13.30;99.90
7030;DHT22;3556;53.500;10.176;2023-05-07T10:53:21;13.20;99.90
7030;DHT22;3556;53.500;10.176;2023-05-07T10:58:44;13.00;99.90
7030;DHT22;3556;53.500;10.176;2023-05-07T11:01:10;13.10;99.90
7030;DHT22;3556;53.500;10.176;2023-05-07T11:04:13;13.10;99.90
7030;DHT22;3556;53.500;10.176;2023-05-07T11:06:39;13.20;99.90
7030;DHT22;3556;53.500;10.176;2023-05-07T11:09:05;13.30;99.90
7030;DHT22;3556;53.500;10.176;2023-05-07T11:12:00;13.40;99.90
7030;DHT22;3556;53.500;10.176;2023-05-07T11:14:46;13.50;99.90
7030;DHT22;3556;53.500;10.176;2023-05-07T11:17:11;13.60;99.90
7030;DHT22;3556;53.500;10.176;2023-05-07T11:19:54;13.80;99.90
7030;DHT22;3556;53.500;10.176;2023-05-07T11:25:05;14.10;99.90
7030;DHT22;3556;53.500;10.176;2023-05-07T11:27:32;14.30;99.90
7030;DHT22;3556;53.500;10.176;2023-05-07T11:29:58;14.20;99.90
7030;DHT22;3556;53.500;10.176;2023-05-07T11:34:57;14.50;99.90
7030;DHT22;3556;53.500;10.176;2023-05-07T11:37:24;14.70;99.90
7030;DHT22;3556;53.500;10.176;2023-05-07T11:39:50;14.80;99.90
7030;DHT22;3556;53.500;10.176;2023-05-07T11:42:35;15.10;99.90
7030;DHT22;3556;53.500;10.176;2023-05-07T11:45:01;15.30;99.90
7030;DHT22;3556;53.500;10.176;2023-05-07T11:47:30;15.50;99.90
7030;DHT22;3556;53.500;10.176;2023-05-07T11:49:56;15.60;99.90
7030;DHT22;3556;53.500;10.176;2023-05-07T11:52:23;15.60;99.90
7030;DHT22;3556;53.500;10.176;2023-05-07T11:54:57;15.80;99.90
7030;DHT22;3556;53.500;10.176;2023-05-07T11:57:24;15.90;99.90
7030;DHT22;3556;53.500;10.176;2023-05-07T11:59:54;16.00;99.90
7030;DHT22;3556;53.500;10.176;2023-05-07T12:02:19;16.20;99.90
7030;DHT22;3556;53.500;10.176;2023-05-07T12:04:45;16.40;99.90
7030;DHT22;3556;53.500;10.176;2023-05-07T12:07:14;16.60;99.90
7030;DHT22;3556;53.500;10.176;2023-05-07T12:09:45;16.80;99.90
7030;DHT22;3556;53.500;10.176;2023-05-07T12:12:11;16.80;99.90
7030;DHT22;3556;53.500;10.176;2023-05-07T12:14:39;17.00;99.90
7030;DHT22;3556;53.500;10.176;2023-05-07T12:17:07;17.10;99.90
7030;DHT22;3556;53.500;10.176;2023-05-07T12:19:34;17.10;99.90
7030;DHT22;3556;53.500;10.176;2023-05-07T12:22:00;17.20;99.90
7030;DHT22;3556;53.500;10.176;2023-05-07T12:24:26;17.20;99.90
7030;DHT22;3556;53.500;10.176;2023-05-07T12:26:52;17.30;99.90
7030;DHT22;3556;53.500;10.176;2023-05-07T12:29:21;17.50;99.90
7030;DHT22;3556;53.500;10.176;2023-05-07T12:31:49;17.40;99.90
7030;DHT22;3556;53.500;10.176;2023-05-07T12:34:15;17.50;99.90
7030;DHT22;3556;53.500;10.176;2023-05-07T12:36:41;17.30;99.90
7030;DHT22;3556;53.500;10.176;2023-05-07T12:39:07;17.20;99.90
7030;DHT22;3556;53.500;10.176;2023-05-07T12:41:55;17.10;99.90
7030;DHT22;3556;53.500;10.176;2023-05-07T12:44:28;17.10;99.90
7030;DHT22;3556;53.500;10.176;2023-05-07T12:46:54;17.00;99.90
7030;DHT22;3556;53.500;10.176;2023-05-07T12:49:20;17.10;99.90
7030;DHT22;3556;53.500;10.176;2023-05-07T12:51:48;17.10;99.90
7030;DHT22;3556;53.500;10.176;2023-05-07T12:54:31;17.20;99.90
7030;DHT22;3556;53.500;10.176;2023-05-07T12:57:05;17.20;99.90
7030;DHT22;3556;53.500;10.176;2023-05-07T12:59:39;17.20;99.90
7030;DHT22;3556;53.500;10.176;2023-05-07T13:02:05;17.20;99.90
7030;DHT22;3556;53.500;10.176;2023-05-07T13:04:32;17.20;99.90
7030;DHT22;3556;53.500;10.176;2023-05-07T13:06:58;17.30;99.90
7030;DHT22;3556;53.500;10.176;2023-05-07T13:09:24;17.40;99.90
7030;DHT22;3556;53.500;10.176;2023-05-07T13:11:50;17.50;99.90
7030;DHT22;3556;53.500;10.176;2023-05-07T13:14:15;17.60;99.90
7030;DHT22;3556;53.500;10.176;2023-05-07T13:16:41;17.60;99.90
7030;DHT22;3556;53.500;10.176;2023-05-07T13:19:07;17.80;99.90
7030;DHT22;3556;53.500;10.176;2023-05-07T13:21:32;17.90;99.90
7030;DHT22;3556;53.500;10.176;2023-05-07T13:23:58;18.10;99.90
7030;DHT22;3556;53.500;10.176;2023-05-07T13:26:25;18.40;99.90
7030;DHT22;3556;53.500;10.176;2023-05-07T13:28:51;18.60;99.90
7030;DHT22;3556;53.500;10.176;2023-05-07T13:31:19;18.90;99.90
7030;DHT22;3556;53.500;10.176;2023-05-07T13:33:46;19.00;98.50
7030;DHT22;3556;53.500;10.176;2023-05-07T13:36:12;19.20;98.90
7030;DHT22;3556;53.500;10.176;2023-05-07T13:38:37;19.40;98.30
7030;DHT22;3556;53.500;10.176;2023-05-07T13:41:03;19.40;98.10
7030;DHT22;3556;53.500;10.176;2023-05-07T13:43:28;19.50;97.00
7030;DHT22;3556;53.500;10.176;2023-05-07T13:45:54;19.60;97.20
7030;DHT22;3556;53.500;10.176;2023-05-07T13:48:19;19.60;96.00
7030;DHT22;3556;53.500;10.176;2023-05-07T13:50:45;19.40;96.10
7030;DHT22;3556;53.500;10.176;2023-05-07T13:53:11;19.50;95.70
7030;DHT22;3556;53.500;10.176;2023-05-07T13:55:36;19.50;95.60
7030;DHT22;3556;53.500;10.176;2023-05-07T13:58:02;19.60;96.40
7030;DHT22;3556;53.500;10.176;2023-05-07T14:00:29;19.60;94.80
7030;DHT22;3556;53.500;10.176;2023-05-07T14:02:55;19.70;95.40
7030;DHT22;3556;53.500;10.176;2023-05-07T14:05:21;19.80;95.20
7030;DHT22;3556;53.500;10.176;2023-05-07T14:07:49;20.10;95.20
7030;DHT22;3556;53.500;10.176;2023-05-07T14:10:17;20.20;95.30
7030;DHT22;3556;53.500;10.176;2023-05-07T14:12:44;20.30;94.40
7030;DHT22;3556;53.500;10.176;2023-05-07T14:15:10;20.50;94.30
7030;DHT22;3556;53.500;10.176;2023-05-07T14:17:35;20.70;93.90
7030;DHT22;3556;53.500;10.176;2023-05-07T14:20:01;20.90;93.50
7030;DHT22;3556;53.500;10.176;2023-05-07T14:22:27;21.10;92.60
7030;DHT22;3556;53.500;10.176;2023-05-07T14:24:52;21.20;92.20
7030;DHT22;3556;53.500;10.176;2023-05-07T14:27:18;21.30;92.00
7030;DHT22;3556;53.500;10.176;2023-05-07T14:29:44;21.60;92.20
7030;DHT22;3556;53.500;10.176;2023-05-07T14:32:11;21.90;92.70
7030;DHT22;3556;53.500;10.176;2023-05-07T14:34:36;22.20;90.30
7030;DHT22;3556;53.500;10.176;2023-05-07T14:37:02;22.00;87.40
7030;DHT22;3556;53.500;10.176;2023-05-07T14:39:28;21.80;88.30
7030;DHT22;3556;53.500;10.176;2023-05-07T14:41:54;21.80;90.10
7030;DHT22;3556;53.500;10.176;2023-05-07T14:44:21;21.90;88.60
7030;DHT22;3556;53.500;10.176;2023-05-07T14:46:47;22.00;89.70
7030;DHT22;3556;53.500;10.176;2023-05-07T14:49:14;22.00;86.20
7030;DHT22;3556;53.500;10.176;2023-05-07T14:51:43;22.00;88.30
7030;DHT22;3556;53.500;10.176;2023-05-07T14:54:09;22.00;87.30
7030;DHT22;3556;53.500;10.176;2023-05-07T14:56:35;21.80;86.70
7030;DHT22;3556;53.500;10.176;2023-05-07T14:59:02;21.60;86.10
7030;DHT22;3556;53.500;10.176;2023-05-07T15:01:28;21.50;87.90
7030;DHT22;3556;53.500;10.176;2023-05-07T15:03:54;21.60;88.30
7030;DHT22;3556;53.500;10.176;2023-05-07T15:06:21;21.80;86.70
7030;DHT22;3556;53.500;10.176;2023-05-07T15:08:46;22.00;86.30
7030;DHT22;3556;53.500;10.176;2023-05-07T15:11:12;21.80;84.20
7030;DHT22;3556;53.500;10.176;2023-05-07T15:13:38;21.60;89.80
7030;DHT22;3556;53.500;10.176;2023-05-07T15:16:03;21.20;84.30
7030;DHT22;3556;53.500;10.176;2023-05-07T15:18:29;20.80;86.90
7030;DHT22;3556;53.500;10.176;2023-05-07T15:20:55;20.60;88.60
7030;DHT22;3556;53.500;10.176;2023-05-07T15:23:22;20.60;90.10
7030;DHT22;3556;53.500;10.176;2023-05-07T15:25:47;20.30;85.90
7030;DHT22;3556;53.500;10.176;2023-05-07T15:28:13;20.20;89.80
7030;DHT22;3556;53.500;10.176;2023-05-07T15:30:39;20.20;87.70
7030;DHT22;3556;53.500;10.176;2023-05-07T15:33:04;20.10;88.90
7030;DHT22;3556;53.500;10.176;2023-05-07T15:35:30;20.00;88.20
7030;DHT22;3556;53.500;10.176;2023-05-07T15:37:56;19.80;89.80
7030;DHT22;3556;53.500;10.176;2023-05-07T15:40:21;19.70;89.60
7030;DHT22;3556;53.500;10.176;2023-05-07T15:42:47;19.60;91.60
7030;DHT22;3556;53.500;10.176;2023-05-07T15:45:13;19.60;88.70
7030;DHT22;3556;53.500;10.176;2023-05-07T15:47:38;19.30;88.40
7030;DHT22;3556;53.500;10.176;2023-05-07T15:50:05;19.10;90.70
7030;DHT22;3556;53.500;10.176;2023-05-07T15:52:30;19.00;92.20
7030;DHT22;3556;53.500;10.176;2023-05-07T15:54:56;18.90;91.50
7030;DHT22;3556;53.500;10.176;2023-05-07T15:57:23;18.80;92.80
7030;DHT22;3556;53.500;10.176;2023-05-07T15:59:48;18.70;92.30
7030;DHT22;3556;53.500;10.176;2023-05-07T16:02:14;18.50;92.00